createdAt,value
2023-03-19T00:00:28.774Z,101077.43
2023-03-19T00:01:33.144Z,101082.82
2023-03-19T00:02:37.433Z,101077.52
2023-03-19T00:03:41.311Z,101081.05
2023-03-19T00:04:48.158Z,101077.69
2023-03-19T00:05:53.546Z,101079.33
2023-03-19T00:07:00.464Z,101081.02
2023-03-19T00:08:04.075Z,101073.03
2023-03-19T00:09:08.945Z,101077.61
2023-03-19T00:10:12.690Z,101075.22
2023-03-19T00:11:15.634Z,101076.98
2023-03-19T00:12:19.099Z,101076.94
2023-03-19T00:13:24.081Z,101069.55
2023-03-19T00:14:30.478Z,101067.60
2023-03-19T00:15:37.587Z,101070.50
2023-03-19T00:16:41.525Z,101066.50
2023-03-19T00:17:45.428Z,101067.82
2023-03-19T00:18:48.754Z,101071.11
2023-03-19T00:19:51.609Z,101061.41
2023-03-19T00:20:55.836Z,101062.36
2023-03-19T00:22:02.368Z,101061.04
2023-03-19T00:23:07.859Z,101057.48
2023-03-19T00:24:12.455Z,101057.34
2023-03-19T00:25:15.930Z,101055.61
2023-03-19T00:26:19.012Z,101048.92
2023-03-19T00:27:24.792Z,101052.74
2023-03-19T00:28:29.505Z,101052.78
2023-03-19T00:29:32.724Z,101045.00
2023-03-19T00:30:37.133Z,101049.39
2023-03-19T00:31:40.295Z,101043.39
2023-03-19T00:32:44.575Z,101039.17
2023-03-19T00:33:50.610Z,101043.53
2023-03-19T00:34:55.405Z,101036.48
2023-03-19T00:36:00.247Z,101036.48
2023-03-19T00:37:04.863Z,101036.66
2023-03-19T00:38:08.218Z,101042.91
2023-03-19T00:39:12.148Z,101043.05
2023-03-19T00:40:15.961Z,101044.84
2023-03-19T00:41:22.830Z,101038.77
2023-03-19T00:42:26.835Z,101043.26
2023-03-19T00:43:30.118Z,101031.89
2023-03-19T00:44:32.203Z,101038.14
2023-03-19T00:45:36.409Z,101040.00
2023-03-19T00:46:41.277Z,101040.83
2023-03-19T00:47:45.812Z,101035.62
2023-03-19T00:48:50.665Z,101031.30
2023-03-19T00:49:53.979Z,101038.34
2023-03-19T00:51:00.646Z,101039.24
2023-03-19T00:52:06.051Z,101042.00
2023-03-19T00:53:08.987Z,101038.55
2023-03-19T00:54:14.092Z,101043.89
2023-03-19T00:55:18.002Z,101036.05
2023-03-19T00:56:21.089Z,101032.63
2023-03-19T00:57:24.575Z,101026.52
2023-03-19T00:58:28.287Z,101031.06
2023-03-19T00:59:31.389Z,101034.55
2023-03-19T01:01:36.721Z,101024.98
2023-03-19T01:02:40.102Z,101025.91
2023-03-19T01:03:46.750Z,101035.54
2023-03-19T01:04:50.451Z,101025.14
2023-03-19T01:05:53.341Z,101032.14
2023-03-19T01:08:03.538Z,101034.00
2023-03-19T01:09:06.986Z,101032.98
2023-03-19T01:10:13.525Z,101038.22
2023-03-19T01:11:17.860Z,101030.33
2023-03-19T01:12:21.578Z,101032.88
2023-03-19T01:13:28.713Z,101039.03
2023-03-19T01:14:32.649Z,101025.81
2023-03-19T01:15:40.758Z,101030.23
2023-03-19T01:16:44.265Z,101032.85
2023-03-19T01:17:47.988Z,101031.19
2023-03-19T01:18:51.696Z,101037.36
2023-03-19T01:19:55.116Z,101027.83
2023-03-19T01:20:59.107Z,101033.97
2023-03-19T01:22:06.206Z,101027.86
2023-03-19T01:23:12.780Z,101034.09
2023-03-19T01:24:17.893Z,101024.53
2023-03-19T01:25:22.950Z,101028.02
2023-03-19T01:26:27.752Z,101032.42
2023-03-19T01:27:32.882Z,101034.28
2023-03-19T01:28:36.870Z,101031.72
2023-03-19T01:29:39.472Z,101035.30
2023-03-19T01:30:47.622Z,101035.27
2023-03-19T01:31:53.316Z,101037.83
2023-03-19T01:33:04.999Z,101038.75
2023-03-19T01:34:17.024Z,101030.88
2023-03-19T01:35:25.407Z,101030.05
2023-03-19T01:36:30.072Z,101038.81
2023-03-19T01:37:40.391Z,101037.05
2023-03-19T01:38:43.560Z,101039.67
2023-03-19T01:39:49.255Z,101037.08
2023-03-19T01:40:54.856Z,101028.38
2023-03-19T01:42:00.338Z,101039.73
2023-03-19T01:43:25.077Z,101031.03
2023-03-19T01:44:35.172Z,101037.17
2023-03-19T01:46:05.287Z,101036.38
2023-03-19T01:47:27.264Z,101038.03
2023-03-19T01:48:45.475Z,101030.20
2023-03-19T01:49:54.734Z,101033.78
2023-03-19T01:50:58.878Z,101038.16
2023-03-19T01:52:08.012Z,101033.87
2023-03-19T01:53:23.949Z,101039.11
2023-03-19T01:54:38.788Z,101029.52
2023-03-19T01:56:05.226Z,101035.62
2023-03-19T01:57:14.892Z,101040.00
2023-03-19T01:58:30.309Z,101033.98
2023-03-19T01:59:50.346Z,101036.55
2023-03-19T02:01:04.937Z,101032.25
2023-03-19T02:02:10.063Z,101035.83
2023-03-19T02:03:15.354Z,101035.05
2023-03-19T02:04:30.375Z,101036.75
2023-03-19T02:05:35.229Z,101035.91
2023-03-19T02:06:43.227Z,101040.31
2023-03-19T02:07:46.968Z,101037.70
2023-03-19T02:08:53.358Z,101045.53
2023-03-19T02:09:57.103Z,101041.13
2023-03-19T02:11:02.904Z,101042.91
2023-03-19T02:12:07.198Z,101042.02
2023-03-19T02:13:11.343Z,101042.85
2023-03-19T02:14:14.720Z,101045.50
2023-03-19T02:15:18.556Z,101042.91
2023-03-19T02:16:23.056Z,101044.72
2023-03-19T02:17:28.483Z,101043.05
2023-03-19T02:18:32.396Z,101039.51
2023-03-19T02:19:40.496Z,101046.48
2023-03-19T02:20:46.873Z,101042.99
2023-03-19T02:21:53.578Z,101045.64
2023-03-19T02:23:01.049Z,101049.91
2023-03-19T02:24:16.460Z,101046.45
2023-03-19T02:25:35.945Z,101046.48
2023-03-19T02:26:41.959Z,101039.40
2023-03-19T02:27:47.447Z,101052.41
2023-03-19T02:28:54.235Z,101049.68
2023-03-19T02:29:59.473Z,101057.56
2023-03-19T02:31:03.490Z,101048.88
2023-03-19T02:32:07.838Z,101056.67
2023-03-19T02:33:15.625Z,101057.52
2023-03-19T02:34:24.352Z,101054.89
2023-03-19T02:35:29.111Z,101053.16
2023-03-19T02:36:39.292Z,101052.24
2023-03-19T02:37:44.398Z,101054.00
2023-03-19T02:38:47.772Z,101054.80
2023-03-19T02:39:58.483Z,101056.59
2023-03-19T02:41:08.136Z,101047.06
2023-03-19T02:42:14.040Z,101053.16
2023-03-19T02:43:17.676Z,101054.09
2023-03-19T02:44:22.636Z,101060.28
2023-03-19T02:45:30.427Z,101060.36
2023-03-19T02:46:33.960Z,101055.06
2023-03-19T02:47:37.444Z,101057.72
2023-03-19T02:48:45.306Z,101063.82
2023-03-19T02:49:48.516Z,101053.42
2023-03-19T02:50:51.905Z,101063.91
2023-03-19T02:51:54.165Z,101063.84
2023-03-19T02:52:57.775Z,101054.20
2023-03-19T02:54:01.412Z,101059.52
2023-03-19T02:55:05.610Z,101062.09
2023-03-19T02:56:09.333Z,101066.41
2023-03-19T02:57:13.257Z,101069.14
2023-03-19T02:58:16.741Z,101061.31
2023-03-19T02:59:20.270Z,101063.06
2023-03-19T03:00:23.254Z,101063.84
2023-03-19T03:01:28.942Z,101067.30
2023-03-19T03:02:32.524Z,101070.92
2023-03-19T03:03:36.070Z,101064.82
2023-03-19T03:04:42.582Z,101066.44
2023-03-19T03:05:46.316Z,101062.09
2023-03-19T03:06:50.873Z,101068.17
2023-03-19T03:07:54.999Z,101074.49
2023-03-19T03:08:58.608Z,101067.61
2023-03-19T03:10:01.278Z,101071.79
2023-03-19T03:11:03.959Z,101066.66
2023-03-19T03:12:07.975Z,101065.98
2023-03-19T03:13:12.314Z,101065.85
2023-03-19T03:14:15.809Z,101071.56
2023-03-19T03:15:19.876Z,101073.27
2023-03-19T03:16:23.962Z,101068.72
2023-03-19T03:17:26.756Z,101067.73
2023-03-19T03:18:30.382Z,101063.27
2023-03-19T03:19:34.079Z,101074.59
2023-03-19T03:20:37.687Z,101077.06
2023-03-19T03:21:41.297Z,101068.31
2023-03-19T03:22:45.903Z,101076.80
2023-03-19T03:23:52.173Z,101075.84
2023-03-19T03:24:59.147Z,101067.17
2023-03-19T03:26:04.613Z,101072.51
2023-03-19T03:27:08.942Z,101076.83
2023-03-19T03:28:12.909Z,101074.95
2023-03-19T03:29:16.696Z,101069.58
2023-03-19T03:30:20.920Z,101071.12
2023-03-19T03:31:26.984Z,101064.23
2023-03-19T03:32:32.364Z,101071.40
2023-03-19T03:33:37.189Z,101067.05
2023-03-19T03:34:40.904Z,101069.55
2023-03-19T03:35:43.833Z,101061.48
2023-03-19T03:36:46.964Z,101066.55
2023-03-19T03:37:50.155Z,101067.41
2023-03-19T03:38:53.973Z,101068.30
2023-03-19T03:39:58.848Z,101066.41
2023-03-19T03:41:01.650Z,101059.34
2023-03-19T03:42:04.805Z,101065.35
2023-03-19T03:43:08.725Z,101063.56
2023-03-19T03:44:14.150Z,101059.11
2023-03-19T03:45:17.840Z,101060.97
2023-03-19T03:46:21.780Z,101068.81
2023-03-19T03:47:25.991Z,101057.28
2023-03-19T03:48:30.440Z,101058.11
2023-03-19T03:49:33.558Z,101065.92
2023-03-19T03:50:36.822Z,101063.22
2023-03-19T03:51:43.851Z,101061.50
2023-03-19T03:52:48.380Z,101070.30
2023-03-19T03:53:56.474Z,101054.31
2023-03-19T03:55:00.449Z,101063.78
2023-03-19T03:56:03.947Z,101061.95
2023-03-19T03:57:07.764Z,101064.54
2023-03-19T03:58:14.515Z,101063.46
2023-03-19T03:59:17.439Z,101073.86
2023-03-19T04:00:21.220Z,101063.46
2023-03-19T04:01:24.822Z,101063.67
2023-03-19T04:02:29.330Z,101065.41
2023-03-19T04:03:32.891Z,101061.91
2023-03-19T04:04:38.462Z,101066.23
2023-03-19T04:05:41.709Z,101067.89
2023-03-19T04:06:46.071Z,101063.50
2023-03-19T04:08:00.376Z,101059.14
2023-03-19T04:09:04.295Z,101052.12
2023-03-19T04:10:08.290Z,101057.42
2023-03-19T04:11:10.562Z,101057.48
2023-03-19T04:12:15.537Z,101054.28
2023-03-19T04:13:19.451Z,101053.63
2023-03-19T04:14:21.918Z,101047.30
2023-03-19T04:15:25.764Z,101054.31
2023-03-19T04:16:31.229Z,101055.08
2023-03-19T04:17:37.873Z,101050.89
2023-03-19T04:18:41.663Z,101051.62
2023-03-19T04:19:43.915Z,101058.73
2023-03-19T04:20:49.196Z,101058.73
2023-03-19T04:21:53.475Z,101055.83
2023-03-19T04:22:58.841Z,101054.72
2023-03-19T04:24:07.016Z,101053.67
2023-03-19T04:25:10.975Z,101049.14
2023-03-19T04:26:13.535Z,101049.11
2023-03-19T04:27:17.050Z,101056.09
2023-03-19T04:28:20.564Z,101054.33
2023-03-19T04:29:24.884Z,101056.77
2023-03-19T04:30:28.748Z,101060.22
2023-03-19T04:31:32.433Z,101053.13
2023-03-19T04:32:37.469Z,101057.63
2023-03-19T04:33:43.103Z,101055.12
2023-03-19T04:34:47.214Z,101059.51
2023-03-19T04:35:50.521Z,101060.30
2023-03-19T04:36:54.748Z,101060.26
2023-03-19T04:37:57.646Z,101059.39
2023-03-19T04:39:04.370Z,101064.51
2023-03-19T04:40:12.044Z,101059.06
2023-03-19T04:41:17.857Z,101055.38
2023-03-19T04:42:24.889Z,101054.37
2023-03-19T04:43:33.428Z,101051.70
2023-03-19T04:44:38.272Z,101055.03
2023-03-19T04:45:42.446Z,101052.33
2023-03-19T04:46:46.390Z,101050.37
2023-03-19T04:47:51.615Z,101050.76
2023-03-19T04:48:56.731Z,101055.28
2023-03-19T04:49:59.902Z,101048.66
2023-03-19T04:51:04.201Z,101047.05
2023-03-19T04:52:08.570Z,101037.98
2023-03-19T04:53:14.803Z,101044.80
2023-03-19T04:54:18.399Z,101043.64
2023-03-19T04:55:21.799Z,101048.89
2023-03-19T04:56:27.386Z,101055.27
2023-03-19T04:57:30.262Z,101054.61
2023-03-19T04:58:36.417Z,101060.95
2023-03-19T04:59:39.917Z,101064.91
2023-03-19T05:00:46.916Z,101060.72
2023-03-19T05:01:52.006Z,101059.04
2023-03-19T05:02:58.585Z,101057.77
2023-03-19T05:04:06.018Z,101051.23
2023-03-19T05:05:14.429Z,101045.30
2023-03-19T05:06:20.872Z,101046.38
2023-03-19T05:07:24.584Z,101040.48
2023-03-19T05:08:29.262Z,101054.81
2023-03-19T05:09:35.581Z,101049.28
2023-03-19T05:10:41.161Z,101058.52
2023-03-19T05:11:44.768Z,101068.39
2023-03-19T05:12:49.317Z,101065.63
2023-03-19T05:13:52.616Z,101068.31
2023-03-19T05:14:55.287Z,101065.61
2023-03-19T05:16:01.441Z,101069.94
2023-03-19T05:17:09.070Z,101065.45
2023-03-19T05:18:17.575Z,101055.39
2023-03-19T05:19:21.027Z,101054.78
2023-03-19T05:20:23.360Z,101059.46
2023-03-19T05:21:30.413Z,101057.87
2023-03-19T05:22:32.980Z,101067.70
2023-03-19T05:23:37.843Z,101066.70
2023-03-19T05:24:43.217Z,101061.58
2023-03-19T05:25:47.241Z,101069.78
2023-03-19T05:26:53.881Z,101071.27
2023-03-19T05:28:05.038Z,101069.81
2023-03-19T05:29:09.776Z,101071.62
2023-03-19T05:30:19.967Z,101066.75
2023-03-19T05:31:42.368Z,101073.44
2023-03-19T05:32:46.317Z,101059.15
2023-03-19T05:33:51.895Z,101059.09
2023-03-19T05:34:54.885Z,101049.30
2023-03-19T05:35:58.354Z,101051.17
2023-03-19T05:37:12.780Z,101051.85
2023-03-19T05:38:16.777Z,101062.31
2023-03-19T05:39:21.956Z,101053.74
2023-03-19T05:40:25.666Z,101054.07
2023-03-19T05:41:31.042Z,101046.58
2023-03-19T05:42:36.229Z,101044.88
2023-03-19T05:43:40.234Z,101045.14
2023-03-19T05:44:50.046Z,101038.88
2023-03-19T05:45:55.119Z,101042.45
2023-03-19T05:47:01.375Z,101050.37
2023-03-19T05:48:06.811Z,101032.70
2023-03-19T05:49:13.032Z,101044.95
2023-03-19T05:50:20.817Z,101055.39
2023-03-19T05:51:34.696Z,101054.52
2023-03-19T05:52:37.425Z,101052.56
2023-03-19T05:53:40.677Z,101048.58
2023-03-19T05:55:01.410Z,101055.70
2023-03-19T05:56:11.449Z,101055.62
2023-03-19T05:57:19.845Z,101068.89
2023-03-19T05:58:25.042Z,101080.48
2023-03-19T05:59:28.875Z,101073.47
2023-03-19T06:00:34.753Z,101073.53
2023-03-19T06:01:38.921Z,101081.02
2023-03-19T06:02:43.703Z,101082.48
2023-03-19T06:03:54.616Z,101080.51
2023-03-19T06:04:58.342Z,101084.34
2023-03-19T06:06:02.522Z,101091.66
2023-03-19T06:07:08.036Z,101092.05
2023-03-19T06:08:12.554Z,101104.91
2023-03-19T06:09:34.666Z,101121.42
2023-03-19T06:10:40.050Z,101115.44
2023-03-19T06:11:45.433Z,101121.45
2023-03-19T06:13:08.681Z,101115.55
2023-03-19T06:14:16.768Z,101129.84
2023-03-19T06:15:21.946Z,101136.52
2023-03-19T06:16:47.000Z,101138.78
2023-03-19T06:17:50.898Z,101133.66
2023-03-19T06:18:54.506Z,101127.84
2023-03-19T06:20:00.934Z,101132.31
2023-03-19T06:21:04.442Z,101125.84
2023-03-19T06:22:08.251Z,101122.50
2023-03-19T06:23:12.316Z,101129.56
2023-03-19T06:24:16.130Z,101121.09
2023-03-19T06:25:19.662Z,101138.70
2023-03-19T06:26:23.850Z,101142.89
2023-03-19T06:27:29.023Z,101148.09
2023-03-19T06:28:35.893Z,101147.84
2023-03-19T06:29:41.152Z,101142.68
2023-03-19T06:30:46.760Z,101130.27
2023-03-19T06:32:01.428Z,101135.24
2023-03-19T06:33:11.555Z,101123.22
2023-03-19T06:34:16.408Z,101116.20
2023-03-19T06:35:21.464Z,101110.59
2023-03-19T06:36:26.927Z,101107.41
2023-03-19T06:37:31.947Z,101115.03
2023-03-19T06:38:36.172Z,101107.86
2023-03-19T06:39:40.060Z,101118.47
2023-03-19T06:40:42.203Z,101121.25
2023-03-19T06:41:45.196Z,101127.59
2023-03-19T06:42:51.509Z,101135.27
2023-03-19T06:43:55.131Z,101131.56
2023-03-19T06:44:58.342Z,101128.75
2023-03-19T06:46:01.097Z,101132.95
2023-03-19T06:47:04.708Z,101128.27
2023-03-19T06:48:08.330Z,101121.41
2023-03-19T06:49:12.134Z,101118.04
2023-03-19T06:50:16.831Z,101113.66
2023-03-19T06:51:24.988Z,101113.95
2023-03-19T06:52:28.307Z,101109.72
2023-03-19T06:53:33.668Z,101103.22
2023-03-19T06:54:38.442Z,101102.38
2023-03-19T06:55:42.254Z,101109.94
2023-03-19T06:56:45.961Z,101111.31
2023-03-19T06:57:50.613Z,101113.08
2023-03-19T06:58:54.875Z,101102.36
2023-03-19T06:59:57.441Z,101098.02
2023-03-19T07:01:00.758Z,101095.56
2023-03-19T07:02:04.226Z,101102.75
2023-03-19T07:03:08.034Z,101098.08
2023-03-19T07:04:12.031Z,101093.63
2023-03-19T07:05:17.798Z,101096.11
2023-03-19T07:06:21.391Z,101096.59
2023-03-19T07:07:23.922Z,101087.11
2023-03-19T07:08:28.224Z,101096.33
2023-03-19T07:09:30.500Z,101095.75
2023-03-19T07:10:34.538Z,101098.09
2023-03-19T07:11:37.322Z,101092.18
2023-03-19T07:12:41.044Z,101088.74
2023-03-19T07:13:44.154Z,101101.08
2023-03-19T07:14:48.676Z,101099.63
2023-03-19T07:15:51.975Z,101097.32
2023-03-19T07:16:55.482Z,101097.45
2023-03-19T07:17:59.211Z,101095.95
2023-03-19T07:19:02.599Z,101098.49
2023-03-19T07:20:06.104Z,101096.61
2023-03-19T07:21:09.736Z,101096.36
2023-03-19T07:22:12.167Z,101097.05
2023-03-19T07:23:15.500Z,101102.94
2023-03-19T07:24:19.076Z,101095.01
2023-03-19T07:25:22.909Z,101101.53
2023-03-19T07:26:26.714Z,101096.33
2023-03-19T07:27:29.968Z,101103.44
2023-03-19T07:28:35.925Z,101101.39
2023-03-19T07:29:42.141Z,101117.70
2023-03-19T07:30:47.409Z,101113.56
2023-03-19T07:31:51.632Z,101105.75
2023-03-19T07:32:57.302Z,101113.31
2023-03-19T07:34:02.037Z,101109.98
2023-03-19T07:35:05.825Z,101108.77
2023-03-19T07:36:10.753Z,101101.53
2023-03-19T07:37:14.433Z,101106.45
2023-03-19T07:38:18.339Z,101110.59
2023-03-19T07:39:20.591Z,101109.30
2023-03-19T07:40:23.989Z,101115.06
2023-03-19T07:41:26.958Z,101123.73
2023-03-19T07:42:33.387Z,101150.12
2023-03-19T07:43:36.765Z,101152.53
2023-03-19T07:44:40.076Z,101162.89
2023-03-19T07:45:43.400Z,101164.11
2023-03-19T07:46:46.588Z,101170.53
2023-03-19T07:48:00.724Z,101177.54
2023-03-19T07:49:07.820Z,101168.08
2023-03-19T07:50:17.348Z,101154.34
2023-03-19T07:51:21.166Z,101154.25
2023-03-19T07:52:25.433Z,101136.01
2023-03-19T07:53:29.727Z,101133.13
2023-03-19T07:54:36.485Z,101122.86
2023-03-19T07:55:40.954Z,101132.19
2023-03-19T07:56:44.360Z,101136.81
2023-03-19T07:57:48.567Z,101136.56
2023-03-19T07:58:51.464Z,101135.74
2023-03-19T07:59:53.799Z,101131.22
2023-03-19T08:00:58.349Z,101128.86
2023-03-19T08:02:01.694Z,101122.09
2023-03-19T08:03:05.210Z,101116.36
2023-03-19T08:04:08.529Z,101115.73
2023-03-19T08:05:12.477Z,101115.27
2023-03-19T08:06:15.986Z,101101.83
2023-03-19T08:07:21.701Z,101112.00
2023-03-19T08:08:27.269Z,101099.94
2023-03-19T08:09:30.776Z,101104.91
2023-03-19T08:10:37.938Z,101099.72
2023-03-19T08:11:41.890Z,101106.80
2023-03-19T08:12:45.137Z,101104.75
2023-03-19T08:13:48.473Z,101102.61
2023-03-19T08:14:51.657Z,101108.02
2023-03-19T08:15:56.745Z,101105.36
2023-03-19T08:16:59.881Z,101103.47
2023-03-19T08:18:05.512Z,101102.53
2023-03-19T08:19:08.901Z,101103.40
2023-03-19T08:20:13.174Z,101099.73
2023-03-19T08:21:17.812Z,101097.33
2023-03-19T08:22:21.077Z,101097.15
2023-03-19T08:23:24.337Z,101101.39
2023-03-19T08:24:26.874Z,101103.22
2023-03-19T08:25:32.948Z,101092.52
2023-03-19T08:26:36.044Z,101101.15
2023-03-19T08:27:40.518Z,101094.97
2023-03-19T08:28:45.029Z,101098.02
2023-03-19T08:29:49.379Z,101093.33
2023-03-19T08:30:52.798Z,101084.13
2023-03-19T08:31:57.435Z,101092.01
2023-03-19T08:33:00.894Z,101097.91
2023-03-19T08:34:05.524Z,101085.67
2023-03-19T08:35:08.368Z,101085.76
2023-03-19T08:36:14.569Z,101081.57
2023-03-19T08:37:17.801Z,101081.60
2023-03-19T08:38:21.496Z,101079.95
2023-03-19T08:39:25.833Z,101076.89
2023-03-19T08:40:29.432Z,101074.97
2023-03-19T08:41:31.580Z,101079.75
2023-03-19T08:42:35.626Z,101076.26
2023-03-19T08:43:38.856Z,101074.66
2023-03-19T08:44:42.418Z,101072.16
2023-03-19T08:45:45.284Z,101068.80
2023-03-19T08:46:49.881Z,101070.20
2023-03-19T08:47:54.410Z,101067.63
2023-03-19T08:48:58.213Z,101067.16
2023-03-19T08:50:01.719Z,101065.45
2023-03-19T08:51:04.069Z,101067.91
2023-03-19T08:52:09.079Z,101061.17
2023-03-19T08:53:12.608Z,101068.23
2023-03-19T08:54:17.087Z,101066.95
2023-03-19T08:55:20.490Z,101067.64
2023-03-19T08:56:26.030Z,101068.58
2023-03-19T08:57:29.597Z,101062.03
2023-03-19T08:58:34.841Z,101069.08
2023-03-19T08:59:38.590Z,101064.79
2023-03-19T09:00:45.085Z,101062.97
2023-03-19T09:01:53.042Z,101061.50
2023-03-19T09:02:57.263Z,101064.97
2023-03-19T09:04:05.896Z,101056.78
2023-03-19T09:05:09.720Z,101053.16
2023-03-19T09:06:15.207Z,101053.30
2023-03-19T09:07:18.478Z,101063.34
2023-03-19T09:08:21.782Z,101061.94
2023-03-19T09:09:24.705Z,101055.88
2023-03-19T09:10:28.079Z,101053.81
2023-03-19T09:11:32.448Z,101054.98
2023-03-19T09:12:36.289Z,101054.05
2023-03-19T09:13:39.604Z,101059.87
2023-03-19T09:14:42.792Z,101056.22
2023-03-19T09:15:46.044Z,101050.31
2023-03-19T09:16:50.379Z,101055.47
2023-03-19T09:17:54.490Z,101059.95
2023-03-19T09:18:59.389Z,101057.33
2023-03-19T09:20:02.749Z,101057.15
2023-03-19T09:21:06.652Z,101060.33
2023-03-19T09:22:09.142Z,101052.80
2023-03-19T09:23:12.097Z,101050.34
2023-03-19T09:24:14.330Z,101055.98
2023-03-19T09:25:17.741Z,101049.27
2023-03-19T09:26:21.878Z,101056.89
2023-03-19T09:27:24.866Z,101059.84
2023-03-19T09:28:28.879Z,101056.41
2023-03-19T09:29:32.598Z,101054.92
2023-03-19T09:30:35.367Z,101055.97
2023-03-19T09:31:39.132Z,101054.04
2023-03-19T09:32:43.734Z,101046.84
2023-03-19T09:33:46.426Z,101045.74
2023-03-19T09:34:49.623Z,101040.55
2023-03-19T09:35:54.516Z,101044.58
2023-03-19T09:36:57.992Z,101036.59
2023-03-19T09:38:01.800Z,101046.04
2023-03-19T09:39:06.240Z,101057.03
2023-03-19T09:40:11.568Z,101048.02
2023-03-19T09:41:16.894Z,101048.50
2023-03-19T09:42:21.378Z,101039.25
2023-03-19T09:43:32.584Z,101039.44
2023-03-19T09:44:39.326Z,101042.38
2023-03-19T09:45:54.446Z,101038.98
2023-03-19T09:47:06.932Z,101040.42
2023-03-19T09:48:12.403Z,101050.75
2023-03-19T09:49:25.030Z,101044.91
2023-03-19T09:50:29.235Z,101045.86
2023-03-19T09:51:38.897Z,101040.58
2023-03-19T09:52:50.132Z,101037.56
2023-03-19T09:53:57.087Z,101039.44
2023-03-19T09:55:04.418Z,101032.61
2023-03-19T09:56:09.137Z,101037.30
2023-03-19T09:57:15.027Z,101037.95
2023-03-19T09:58:22.182Z,101029.89
2023-03-19T09:59:28.292Z,101032.87
2023-03-19T10:00:35.140Z,101026.77
2023-03-19T10:01:42.116Z,101025.09
2023-03-19T10:02:46.018Z,101029.59
2023-03-19T10:03:55.916Z,101018.00
2023-03-19T10:05:06.290Z,101018.11
2023-03-19T10:06:20.648Z,101017.47
2023-03-19T10:07:43.192Z,101011.67
2023-03-19T10:08:58.469Z,101017.16
2023-03-19T10:10:18.687Z,101015.52
2023-03-19T10:11:23.757Z,101021.80
2023-03-19T10:12:29.329Z,101009.62
2023-03-19T10:13:35.792Z,101010.27
2023-03-19T10:14:51.719Z,101008.56
2023-03-19T10:15:57.569Z,101002.91
2023-03-19T10:17:03.472Z,101007.88
2023-03-19T10:18:15.631Z,101003.61
2023-03-19T10:19:22.282Z,101002.66
2023-03-19T10:20:42.642Z,101002.30
2023-03-19T10:21:51.405Z,101003.25
2023-03-19T10:22:58.666Z,100999.81
2023-03-19T10:24:08.195Z,100997.84
2023-03-19T10:25:12.366Z,100996.80
2023-03-19T10:26:22.060Z,101000.21
2023-03-19T10:27:26.671Z,100994.69
2023-03-19T10:28:30.911Z,100994.16
2023-03-19T10:29:35.781Z,101000.00
2023-03-19T10:30:39.183Z,100996.13
2023-03-19T10:32:00.761Z,100994.87
2023-03-19T10:33:06.655Z,100991.55
2023-03-19T10:34:20.710Z,100990.92
2023-03-19T10:35:25.273Z,100988.12
2023-03-19T10:36:29.507Z,100986.14
2023-03-19T10:37:35.565Z,100988.21
2023-03-19T10:38:41.243Z,100978.81
2023-03-19T10:39:45.026Z,100985.20
2023-03-19T10:41:00.143Z,100975.91
2023-03-19T10:42:08.974Z,100976.77
2023-03-19T10:43:13.299Z,100968.74
2023-03-19T10:44:24.554Z,100971.09
2023-03-19T10:45:34.104Z,100971.57
2023-03-19T10:46:38.867Z,100980.02
2023-03-19T10:47:43.426Z,100969.09
2023-03-19T10:48:46.938Z,100972.16
2023-03-19T10:49:50.646Z,100967.97
2023-03-19T10:51:00.928Z,100963.73
2023-03-19T10:52:05.046Z,100964.45
2023-03-19T10:53:12.423Z,100970.41
2023-03-19T10:54:24.592Z,100967.25
2023-03-19T10:55:35.306Z,100963.08
2023-03-19T10:56:40.753Z,100948.58
2023-03-19T10:57:43.669Z,100957.50
2023-03-19T10:59:00.872Z,100952.06
2023-03-19T11:00:06.953Z,100950.34
2023-03-19T11:01:11.768Z,100953.45
2023-03-19T11:02:17.282Z,100948.37
2023-03-19T11:03:27.456Z,100948.45
2023-03-19T11:04:32.812Z,100934.98
2023-03-19T11:05:39.996Z,100935.33
2023-03-19T11:06:46.064Z,100943.39
2023-03-19T11:07:50.532Z,100932.16
2023-03-19T11:08:59.245Z,100944.16
2023-03-19T11:10:03.593Z,100935.37
2023-03-19T11:11:06.458Z,100947.59
2023-03-19T11:12:24.287Z,100950.72
2023-03-19T11:14:44.607Z,100950.20
2023-03-19T11:15:48.470Z,100953.59
2023-03-19T11:16:58.844Z,100950.51
2023-03-19T11:18:03.000Z,100952.83
2023-03-19T11:19:08.600Z,100951.70
2023-03-19T11:20:29.125Z,100949.27
2023-03-19T11:21:32.537Z,100945.53
2023-03-19T11:22:41.266Z,100945.67
2023-03-19T11:23:44.560Z,100941.50
2023-03-19T11:24:55.296Z,100935.80
2023-03-19T11:26:04.206Z,100939.09
2023-03-19T11:27:08.655Z,100945.84
2023-03-19T11:28:18.123Z,100929.13
2023-03-19T11:29:22.661Z,100930.84
2023-03-19T11:30:26.792Z,100926.62
2023-03-19T11:31:41.544Z,100918.53
2023-03-19T11:32:52.316Z,100923.98
2023-03-19T11:34:01.754Z,100924.67
2023-03-19T11:35:06.814Z,100919.12
2023-03-19T11:36:15.353Z,100908.25
2023-03-19T11:37:24.361Z,100911.69
2023-03-19T11:38:29.764Z,100907.39
2023-03-19T11:39:38.952Z,100912.09
2023-03-19T11:40:52.238Z,100905.06
2023-03-19T11:42:11.966Z,100904.25
2023-03-19T11:43:20.237Z,100904.08
2023-03-19T11:44:25.417Z,100902.53
2023-03-19T11:45:31.536Z,100895.38
2023-03-19T11:46:49.720Z,100907.62
2023-03-19T11:48:06.777Z,100902.10
2023-03-19T11:49:12.240Z,100899.58
2023-03-19T11:50:18.275Z,100896.36
2023-03-19T11:51:29.651Z,100892.63
2023-03-19T11:52:35.791Z,100890.48
2023-03-19T11:53:41.293Z,100893.94
2023-03-19T11:54:58.273Z,100887.36
2023-03-19T11:56:03.123Z,100886.55
2023-03-19T11:57:12.175Z,100889.84
2023-03-19T11:58:26.673Z,100881.88
2023-03-19T11:59:34.016Z,100885.51
2023-03-19T12:00:40.137Z,100885.84
2023-03-19T12:01:44.720Z,100884.95
2023-03-19T12:02:53.316Z,100876.47
2023-03-19T12:04:00.454Z,100878.09
2023-03-19T12:05:05.747Z,100873.59
2023-03-19T12:06:25.650Z,100873.59
2023-03-19T12:07:40.331Z,100875.02
2023-03-19T12:08:46.484Z,100872.78
2023-03-19T12:10:09.903Z,100879.12
2023-03-19T12:11:14.962Z,100872.83
2023-03-19T12:12:26.494Z,100874.70
2023-03-19T12:13:39.751Z,100873.39
2023-03-19T12:14:44.802Z,100870.98
2023-03-19T12:15:50.185Z,100872.99
2023-03-19T12:16:57.764Z,100862.23
2023-03-19T12:18:04.925Z,100864.53
2023-03-19T12:19:20.499Z,100859.40
2023-03-19T12:20:29.932Z,100860.91
2023-03-19T12:21:39.580Z,100856.83
2023-03-19T12:22:47.993Z,100853.40
2023-03-19T12:24:00.694Z,100860.91
2023-03-19T12:25:06.066Z,100855.25
2023-03-19T12:26:11.020Z,100857.73
2023-03-19T12:27:15.908Z,100857.53
2023-03-19T12:28:26.885Z,100854.39
2023-03-19T12:29:50.719Z,100849.80
2023-03-19T12:30:58.842Z,100853.74
2023-03-19T12:32:04.495Z,100852.31
2023-03-19T12:33:11.678Z,100845.31
2023-03-19T12:34:30.519Z,100842.98
2023-03-19T12:35:35.684Z,100836.28
2023-03-19T12:36:40.137Z,100836.12